Time;durP1;ratioP1;P1;durP2;ratioP2;P2;SDS_P1;SDS_P2;PMS_P1;PMS_P2;Temp;Humidity;BMP_temperature;BMP_pressure;BME280_temperature;BME280_humidity;BME280_pressure;Samples;Min_cycle;Max_cycle;Signal;HPM_P1;HPM_P2
2023/11/25 00:01:06;;;;;;;4.20;0.40;;;3.80;99.90;;;;;;5042179;28;20211;-58
2023/11/25 00:03:34;;;;;;;3.33;0.40;;;3.80;99.90;;;;;;5038805;28;20201;-58
2023/11/25 00:06:01;;;;;;;3.70;0.37;;;3.90;99.90;;;;;;5048964;28;20208;-58
2023/11/25 00:08:28;;;;;;;0.87;0.63;;;3.90;99.90;;;;;;5038409;28;20279;-58
2023/11/25 00:10:56;;;;;;;0.90;0.70;;;3.90;99.90;;;;;;5046973;28;20203;-58
2023/11/25 00:13:23;;;;;;;1.87;0.50;;;3.90;99.90;;;;;;5041480;28;20217;-58
2023/11/25 00:15:50;;;;;;;0.60;0.40;;;3.90;99.90;;;;;;5049220;28;20206;-58
2023/11/25 00:18:17;;;;;;;1.93;0.30;;;3.90;99.90;;;;;;5050676;28;20219;-58
2023/11/25 00:20:46;;;;;;;0.43;0.20;;;3.90;99.90;;;;;;5038842;28;20247;-58
2023/11/25 00:23:13;;;;;;;0.20;0.20;;;3.90;99.90;;;;;;5046738;28;20203;-59
2023/11/25 00:25:40;;;;;;;0.57;0.27;;;3.90;99.90;;;;;;5040692;28;20672;-58
2023/11/25 00:28:09;;;;;;;0.23;0.23;;;3.90;99.90;;;;;;5041344;28;20245;-58
2023/11/25 00:30:36;;;;;;;0.53;0.40;;;3.80;99.90;;;;;;5046035;28;20200;-58
2023/11/25 00:33:04;;;;;;;0.87;0.40;;;3.80;99.90;;;;;;5041965;28;20746;-58
2023/11/25 00:35:31;;;;;;;2.27;0.50;;;3.70;99.90;;;;;;5047936;28;20208;-58
2023/11/25 00:37:59;;;;;;;0.43;0.27;;;3.70;99.90;;;;;;5046919;28;20205;-58
2023/11/25 00:40:27;;;;;;;0.33;0.33;;;3.60;99.90;;;;;;5043700;28;20197;-58
2023/11/25 00:42:54;;;;;;;1.90;0.33;;;3.60;99.90;;;;;;5045522;28;20200;-58
2023/11/25 00:45:25;;;;;;;0.60;0.30;;;3.50;99.90;;;;;;5047720;28;20249;-58
2023/11/25 00:47:52;;;;;;;0.73;0.30;;;3.70;99.90;;;;;;5044712;28;20277;-58
2023/11/25 00:50:19;;;;;;;1.00;0.40;;;3.60;99.90;;;;;;5044060;28;20200;-58
2023/11/25 00:52:46;;;;;;;0.20;0.20;;;3.50;99.90;;;;;;5046711;28;20584;-58
2023/11/25 00:55:14;;;;;;;1.37;0.20;;;3.60;99.90;;;;;;5049708;28;20224;-57
2023/11/25 00:57:41;;;;;;;0.30;0.20;;;3.50;99.90;;;;;;5043063;28;20203;-58
2023/11/25 01:00:15;;;;;;;0.67;0.43;;;3.50;99.90;;;;;;5050570;28;20231;-58
2023/11/25 01:02:42;;;;;;;0.43;0.40;;;3.60;99.90;;;;;;5043230;28;20212;-58
2023/11/25 01:05:10;;;;;;;1.53;0.50;;;3.50;99.90;;;;;;5046408;28;20200;-58
2023/11/25 01:07:37;;;;;;;1.47;0.30;;;3.50;99.90;;;;;;5042624;28;20208;-58
2023/11/25 01:10:05;;;;;;;0.30;0.30;;;3.50;99.90;;;;;;5050016;28;20765;-58
2023/11/25 01:12:35;;;;;;;1.30;0.30;;;3.50;99.90;;;;;;5043367;28;20234;-58
2023/11/25 01:15:03;;;;;;;0.87;0.40;;;3.50;99.90;;;;;;5041167;28;20224;-58
2023/11/25 01:17:30;;;;;;;0.20;0.20;;;3.50;99.90;;;;;;5043239;28;20278;-58
2023/11/25 01:19:58;;;;;;;0.47;0.20;;;3.40;99.90;;;;;;5047014;28;20311;-58
2023/11/25 01:22:25;;;;;;;0.23;0.23;;;3.40;99.90;;;;;;5050811;28;20258;-58
2023/11/25 01:24:52;;;;;;;0.33;0.30;;;3.50;99.90;;;;;;5047181;28;20222;-58
2023/11/25 01:27:19;;;;;;;1.70;0.30;;;3.40;99.90;;;;;;5042936;28;20742;-58
2023/11/25 01:29:47;;;;;;;0.30;0.10;;;3.50;99.90;;;;;;5045814;28;20219;-59
2023/11/25 01:32:14;;;;;;;4.93;0.30;;;3.40;99.90;;;;;;5040236;28;20247;-58
2023/11/25 01:34:41;;;;;;;0.53;0.13;;;3.40;99.90;;;;;;5047460;28;20647;-58
2023/11/25 01:37:08;;;;;;;0.40;0.30;;;3.40;99.90;;;;;;5046468;28;20204;-58
2023/11/25 01:39:35;;;;;;;2.70;0.40;;;3.40;99.90;;;;;;5035489;28;20228;-58
2023/11/25 01:42:02;;;;;;;0.90;0.40;;;3.40;99.90;;;;;;5044309;28;20204;-58
2023/11/25 01:44:29;;;;;;;0.53;0.40;;;3.40;99.90;;;;;;5045845;28;20238;-59
2023/11/25 01:46:58;;;;;;;2.93;0.47;;;3.50;99.90;;;;;;5034132;28;20254;-58
2023/11/25 01:49:25;;;;;;;2.20;0.47;;;3.50;99.90;;;;;;5045563;28;20258;-58
2023/11/25 01:51:53;;;;;;;1.70;0.27;;;3.40;99.90;;;;;;5046762;28;20227;-58
2023/11/25 01:54:21;;;;;;;1.43;0.20;;;3.50;99.90;;;;;;5041479;28;20281;-58
2023/11/25 01:56:52;;;;;;;0.70;0.20;;;3.60;99.90;;;;;;5040894;28;20246;-58
2023/11/25 01:59:20;;;;;;;0.30;0.20;;;3.60;99.90;;;;;;5037385;28;20660;-59
2023/11/25 02:01:48;;;;;;;0.20;0.20;;;3.60;99.90;;;;;;5039878;28;20294;-58
2023/11/25 02:04:17;;;;;;;0.77;0.30;;;3.60;99.90;;;;;;5045471;28;20243;-58
2023/11/25 02:06:43;;;;;;;0.23;0.20;;;3.60;99.90;;;;;;5041486;28;20206;-58
2023/11/25 02:09:11;;;;;;;1.20;0.20;;;3.60;99.90;;;;;;5051970;28;20235;-58
2023/11/25 02:11:53;;;;;;;0.90;0.20;;;3.60;99.90;;;;;;5047840;28;20299;-58
2023/11/25 02:14:20;;;;;;;0.30;0.30;;;3.70;99.90;;;;;;5045808;28;20661;-58
2023/11/25 02:16:47;;;;;;;1.27;0.20;;;3.60;99.90;;;;;;5049988;28;20208;-58
2023/11/25 02:19:16;;;;;;;0.23;0.20;;;3.60;99.90;;;;;;5051239;28;20737;-58
2023/11/25 02:21:44;;;;;;;1.90;0.40;;;3.50;99.90;;;;;;5047832;28;20315;-58
2023/11/25 02:24:13;;;;;;;0.57;0.20;;;3.50;99.90;;;;;;5036803;28;20205;-58
2023/11/25 02:26:40;;;;;;;1.33;0.27;;;3.40;99.90;;;;;;5050756;28;20232;-58
2023/11/25 02:29:07;;;;;;;1.23;0.40;;;3.20;99.90;;;;;;5042644;28;20298;-58
2023/11/25 02:31:34;;;;;;;0.40;0.40;;;3.20;99.90;;;;;;5045892;28;20247;-58
2023/11/25 02:34:01;;;;;;;1.30;0.40;;;3.20;99.90;;;;;;5048836;28;20204;-58
2023/11/25 02:36:28;;;;;;;1.13;0.10;;;3.10;99.90;;;;;;5051160;28;20671;-58
2023/11/25 02:38:55;;;;;;;3.00;0.20;;;3.10;99.90;;;;;;5048319;28;20265;-58
2023/11/25 02:41:23;;;;;;;2.63;0.20;;;3.00;99.90;;;;;;5043257;28;20887;-58
2023/11/25 02:43:51;;;;;;;4.23;0.23;;;3.10;99.90;;;;;;5052369;28;20211;-58
2023/11/25 02:46:19;;;;;;;0.23;0.23;;;3.10;99.90;;;;;;5052491;28;20203;-58
2023/11/25 02:48:46;;;;;;;0.60;0.30;;;3.20;99.90;;;;;;5046071;28;20255;-58
2023/11/25 02:51:12;;;;;;;0.10;0.10;;;3.10;99.90;;;;;;5045963;28;20204;-58
2023/11/25 02:53:39;;;;;;;0.20;0.20;;;3.10;99.90;;;;;;5053977;28;20671;-58
2023/11/25 02:56:07;;;;;;;2.30;0.20;;;3.20;99.90;;;;;;5046183;28;20223;-57
2023/11/25 02:58:36;;;;;;;0.20;0.20;;;3.20;99.90;;;;;;5050491;28;20282;-58
2023/11/25 03:01:07;;;;;;;0.10;0.10;;;3.20;99.90;;;;;;5052474;28;20310;-58
2023/11/25 03:03:41;;;;;;;0.47;0.10;;;3.20;99.90;;;;;;5044345;28;20232;-58
2023/11/25 03:06:09;;;;;;;1.53;0.17;;;3.10;99.90;;;;;;5047571;28;20256;-58
2023/11/25 03:08:36;;;;;;;0.10;0.10;;;3.20;99.90;;;;;;5051152;28;20642;-58
2023/11/25 03:11:11;;;;;;;0.90;0.30;;;3.20;99.90;;;;;;5043442;28;20204;-57
2023/11/25 03:13:41;;;;;;;0.20;0.10;;;3.20;99.90;;;;;;5051599;28;20294;-58
2023/11/25 03:16:10;;;;;;;0.10;0.10;;;3.20;99.90;;;;;;5051777;28;20307;-58
2023/11/25 03:18:37;;;;;;;0.17;0.17;;;3.20;99.90;;;;;;5045432;28;20227;-58
2023/11/25 03:21:04;;;;;;;2.90;0.10;;;3.20;99.90;;;;;;5050424;28;20207;-58
2023/11/25 03:23:31;;;;;;;0.77;0.20;;;3.20;99.90;;;;;;5045527;28;20292;-58
2023/11/25 03:25:58;;;;;;;0.30;0.30;;;3.20;99.90;;;;;;5052405;28;20626;-58
2023/11/25 03:28:26;;;;;;;0.80;0.30;;;3.20;99.90;;;;;;5046059;28;22120;-58
2023/11/25 03:30:55;;;;;;;6.07;0.50;;;3.20;99.90;;;;;;5046697;28;20556;-58
2023/11/25 03:33:22;;;;;;;1.77;0.20;;;3.10;99.90;;;;;;5045418;28;20751;-58
2023/11/25 03:35:49;;;;;;;0.73;0.20;;;3.10;99.90;;;;;;5047874;28;20224;-58
2023/11/25 03:38:16;;;;;;;1.00;0.23;;;3.00;99.90;;;;;;5049130;28;20269;-58
2023/11/25 03:40:43;;;;;;;0.70;0.40;;;3.00;99.90;;;;;;5045336;28;20204;-58
2023/11/25 03:43:10;;;;;;;3.70;0.40;;;2.80;99.90;;;;;;5042939;28;20208;-58
2023/11/25 03:45:37;;;;;;;0.67;0.30;;;2.70;99.90;;;;;;5048486;28;20612;-58
2023/11/25 03:48:06;;;;;;;1.63;0.47;;;2.70;99.90;;;;;;5050633;28;20200;-58
2023/11/25 03:50:33;;;;;;;1.30;0.30;;;2.70;99.90;;;;;;5047535;28;20206;-58
2023/11/25 03:53:00;;;;;;;1.97;0.30;;;2.70;99.90;;;;;;5041286;28;20198;-58
2023/11/25 03:55:27;;;;;;;3.40;0.30;;;2.70;99.90;;;;;;5048954;28;20284;-58
2023/11/25 03:57:54;;;;;;;1.03;0.30;;;2.70;99.90;;;;;;5044956;28;20262;-58
2023/11/25 04:00:22;;;;;;;2.83;0.40;;;2.80;99.90;;;;;;5043130;28;20748;-59
2023/11/25 04:02:51;;;;;;;0.77;0.30;;;2.80;99.90;;;;;;5046068;28;20754;-58
2023/11/25 04:05:19;;;;;;;0.30;0.30;;;2.80;99.90;;;;;;5047159;28;20203;-58
2023/11/25 04:07:47;;;;;;;0.20;0.20;;;2.90;99.90;;;;;;5039402;28;20196;-58
2023/11/25 04:10:15;;;;;;;2.20;0.20;;;2.90;99.90;;;;;;5048004;28;20223;-58
2023/11/25 04:12:42;;;;;;;2.43;0.30;;;3.00;99.90;;;;;;5047598;28;20286;-58
2023/11/25 04:15:10;;;;;;;4.23;0.40;;;3.00;99.90;;;;;;5045946;28;20219;-58
2023/11/25 04:17:38;;;;;;;3.33;0.20;;;3.00;99.90;;;;;;5040897;28;20237;-58
2023/11/25 04:20:12;;;;;;;2.90;0.73;;;2.90;99.90;;;;;;5047833;28;20229;-58
2023/11/25 04:22:42;;;;;;;6.30;0.87;;;2.70;99.90;;;;;;5044364;28;20215;-58
2023/11/25 04:25:09;;;;;;;0.77;0.20;;;2.40;99.90;;;;;;5051653;28;20246;-58
2023/11/25 04:27:36;;;;;;;1.87;0.17;;;2.10;99.90;;;;;;5040013;28;20252;-58
2023/11/25 04:30:05;;;;;;;1.13;0.43;;;2.00;99.90;;;;;;5044604;28;20227;-58
2023/11/25 04:32:32;;;;;;;0.20;0.20;;;1.90;99.90;;;;;;5044257;28;20212;-58
2023/11/25 04:34:59;;;;;;;0.97;0.77;;;1.80;99.90;;;;;;5051048;28;20254;-58
2023/11/25 04:37:26;;;;;;;1.37;0.30;;;1.70;99.90;;;;;;5050408;28;20261;-58
2023/11/25 04:39:54;;;;;;;0.50;0.33;;;1.70;99.90;;;;;;5039360;28;20765;-58
2023/11/25 04:42:21;;;;;;;0.10;0.10;;;1.70;99.90;;;;;;5043809;28;20262;-58
2023/11/25 04:44:48;;;;;;;0.20;0.10;;;1.70;99.90;;;;;;5049545;28;20196;-57
2023/11/25 04:47:15;;;;;;;1.33;0.40;;;1.70;99.90;;;;;;5048569;28;20207;-58
2023/11/25 04:49:43;;;;;;;0.37;0.20;;;1.80;99.90;;;;;;5049124;28;20238;-58
2023/11/25 04:52:10;;;;;;;0.90;0.23;;;1.80;99.90;;;;;;5047704;28;20196;-58
2023/11/25 04:54:38;;;;;;;0.30;0.30;;;1.80;99.90;;;;;;5047256;28;20199;-58
2023/11/25 04:57:06;;;;;;;0.20;0.20;;;1.90;99.90;;;;;;5045798;28;20665;-58
2023/11/25 04:59:34;;;;;;;1.57;0.40;;;1.90;99.90;;;;;;5041673;28;20224;-58
2023/11/25 05:02:01;;;;;;;2.63;0.90;;;1.90;99.90;;;;;;5032274;28;20210;-58
2023/11/25 05:04:28;;;;;;;2.37;0.63;;;2.00;99.90;;;;;;5036471;28;20667;-58
2023/11/25 05:06:55;;;;;;;3.03;0.30;;;2.00;99.90;;;;;;5044309;28;20652;-58
2023/11/25 05:09:25;;;;;;;0.73;0.13;;;2.10;99.90;;;;;;5051645;28;20277;-58
2023/11/25 05:11:52;;;;;;;0.97;0.40;;;2.10;99.90;;;;;;5048112;28;20210;-58
2023/11/25 05:14:21;;;;;;;0.87;0.30;;;2.10;99.90;;;;;;5048921;28;20204;-57
2023/11/25 05:16:49;;;;;;;1.37;0.30;;;2.00;99.90;;;;;;5048162;28;20269;-58
2023/11/25 05:19:16;;;;;;;1.20;0.57;;;2.10;99.90;;;;;;5051024;28;20223;-58
2023/11/25 05:21:43;;;;;;;0.20;0.20;;;1.70;99.90;;;;;;5049064;28;20199;-58
2023/11/25 05:24:10;;;;;;;1.37;0.20;;;2.30;99.90;;;;;;5043813;28;20883;-58
2023/11/25 05:26:40;;;;;;;0.20;0.20;;;2.20;99.90;;;;;;5049440;28;20210;-58
2023/11/25 05:29:07;;;;;;;0.60;0.23;;;2.30;99.90;;;;;;5049231;28;20226;-58
2023/11/25 05:31:39;;;;;;;2.23;0.40;;;2.30;99.90;;;;;;5049860;28;20208;-58
2023/11/25 05:34:06;;;;;;;0.50;0.50;;;2.20;99.90;;;;;;5047811;28;20632;-58
2023/11/25 05:36:33;;;;;;;1.40;0.43;;;2.20;99.90;;;;;;5050727;28;20240;-59
2023/11/25 05:39:00;;;;;;;1.27;0.40;;;2.10;99.90;;;;;;5048100;28;20232;-58
2023/11/25 05:41:28;;;;;;;0.30;0.30;;;2.20;99.90;;;;;;5050095;28;20287;-58
2023/11/25 05:43:57;;;;;;;0.27;0.27;;;2.30;99.90;;;;;;5051417;28;20377;-58
2023/11/25 05:46:28;;;;;;;0.97;0.30;;;2.30;99.90;;;;;;5047309;28;20751;-59
2023/11/25 05:48:57;;;;;;;1.50;0.40;;;2.30;99.90;;;;;;5031214;28;20235;-58
2023/11/25 05:51:33;;;;;;;1.47;0.50;;;2.30;99.90;;;;;;5031287;28;20210;-58
2023/11/25 05:54:01;;;;;;;3.20;0.40;;;2.20;99.90;;;;;;5031257;28;20207;-58
2023/11/25 05:56:28;;;;;;;0.87;0.30;;;2.20;99.90;;;;;;5032610;28;20227;-58
2023/11/25 05:58:55;;;;;;;0.90;0.33;;;2.30;99.90;;;;;;5039183;28;20217;-58
2023/11/25 06:01:22;;;;;;;1.63;1.33;;;2.30;99.90;;;;;;5031189;28;20742;-58
2023/11/25 06:03:50;;;;;;;0.60;0.37;;;2.30;99.90;;;;;;5030386;28;20284;-58
2023/11/25 06:06:20;;;;;;;1.97;0.30;;;2.30;99.90;;;;;;5030881;28;20201;-58
2023/11/25 06:08:48;;;;;;;0.23;0.20;;;2.30;99.90;;;;;;5043172;28;20581;-60
2023/11/25 06:11:20;;;;;;;2.63;0.60;;;2.40;99.90;;;;;;5051217;28;20291;-58
2023/11/25 06:13:47;;;;;;;1.47;0.80;;;2.40;99.90;;;;;;5043058;28;20200;-57
2023/11/25 06:16:14;;;;;;;0.23;0.23;;;2.40;99.90;;;;;;5050384;28;20326;-58
2023/11/25 06:18:41;;;;;;;1.13;0.17;;;2.40;99.90;;;;;;5050738;28;20270;-58
2023/11/25 06:21:08;;;;;;;2.83;0.30;;;2.30;99.90;;;;;;5051209;28;20209;-58
2023/11/25 06:23:37;;;;;;;2.77;0.30;;;2.30;99.90;;;;;;5051018;28;20256;-58
2023/11/25 06:26:06;;;;;;;2.83;0.40;;;2.30;99.90;;;;;;5050547;28;20211;-58
2023/11/25 06:28:32;;;;;;;0.20;0.20;;;2.20;99.90;;;;;;5045909;28;20235;-58
2023/11/25 06:31:00;;;;;;;1.80;0.50;;;2.20;99.90;;;;;;5041368;28;20254;-58
2023/11/25 06:33:29;;;;;;;2.43;0.30;;;2.10;99.90;;;;;;5042109;28;20243;-58
2023/11/25 06:35:57;;;;;;;2.63;0.40;;;2.10;99.90;;;;;;5050397;28;20234;-58
2023/11/25 06:38:24;;;;;;;4.50;0.70;;;2.20;99.90;;;;;;5050434;28;20251;-58
2023/11/25 06:40:53;;;;;;;2.53;0.83;;;2.20;99.90;;;;;;5048657;28;20287;-59
2023/11/25 06:43:20;;;;;;;11.97;4.90;;;2.20;99.90;;;;;;5041984;28;20205;-58
2023/11/25 06:45:48;;;;;;;4.13;1.80;;;2.20;99.90;;;;;;5047345;28;20255;-58
2023/11/25 06:48:18;;;;;;;1.60;1.37;;;2.20;99.90;;;;;;5049395;28;20723;-60
2023/11/25 06:50:45;;;;;;;2.50;1.50;;;2.20;99.90;;;;;;5051114;28;20283;-56
2023/11/25 06:53:13;;;;;;;4.97;1.40;;;2.30;99.90;;;;;;5054230;28;20208;-56
2023/11/25 06:55:41;;;;;;;3.27;0.93;;;2.30;99.90;;;;;;5053485;28;20727;-58
2023/11/25 06:58:10;;;;;;;2.53;1.00;;;2.20;99.90;;;;;;5053972;28;20210;-58
2023/11/25 07:00:38;;;;;;;3.07;0.80;;;2.20;99.90;;;;;;5054110;28;20204;-58
2023/11/25 07:03:05;;;;;;;2.57;0.83;;;2.20;99.90;;;;;;5054132;28;20207;-58
2023/11/25 07:05:32;;;;;;;2.07;1.13;;;2.30;99.90;;;;;;5053722;28;20945;-58
2023/11/25 07:07:59;;;;;;;3.33;1.17;;;2.20;99.90;;;;;;5053429;28;20204;-58
2023/11/25 07:10:32;;;;;;;7.53;1.17;;;2.20;99.90;;;;;;5053724;28;20207;-58
2023/11/25 07:12:59;;;;;;;2.50;0.87;;;2.30;99.90;;;;;;5053764;28;20306;-58
2023/11/25 07:15:27;;;;;;;2.57;0.93;;;2.30;99.90;;;;;;5050217;28;20254;-58
2023/11/25 07:17:55;;;;;;;1.90;1.27;;;2.30;99.90;;;;;;5052696;28;20199;-58
2023/11/25 07:20:22;;;;;;;5.37;2.70;;;2.30;99.90;;;;;;5045789;28;20242;-59
2023/11/25 07:22:48;;;;;;;5.57;1.57;;;2.30;99.90;;;;;;5041212;28;20253;-56
2023/11/25 07:25:16;;;;;;;2.90;1.00;;;2.30;99.90;;;;;;5045289;28;20256;-56
2023/11/25 07:27:45;;;;;;;1.10;1.03;;;2.30;99.90;;;;;;5039693;28;20204;-58
2023/11/25 07:30:13;;;;;;;1.13;1.00;;;2.20;99.90;;;;;;5038051;28;20319;-58
2023/11/25 07:32:43;;;;;;;2.63;1.30;;;2.20;99.90;;;;;;5040066;28;20200;-58
2023/11/25 07:35:10;;;;;;;3.13;1.17;;;2.20;99.90;;;;;;5039559;28;20208;-58
2023/11/25 07:37:38;;;;;;;4.30;0.97;;;2.10;99.90;;;;;;5041411;28;20234;-58
2023/11/25 07:40:09;;;;;;;5.70;0.70;;;2.20;99.90;;;;;;5039473;28;20215;-58
2023/11/25 07:42:37;;;;;;;1.03;0.50;;;2.20;99.90;;;;;;5038802;28;20204;-58
2023/11/25 07:45:08;;;;;;;1.17;0.40;;;2.20;99.90;;;;;;5039800;28;20207;-58
2023/11/25 07:47:35;;;;;;;3.23;0.97;;;2.20;99.90;;;;;;5039128;28;20196;-56
2023/11/25 07:50:04;;;;;;;1.27;1.17;;;2.20;99.90;;;;;;5051185;28;20734;-59
2023/11/25 07:52:31;;;;;;;1.83;0.70;;;2.20;99.90;;;;;;5047900;28;20200;-58
2023/11/25 07:54:58;;;;;;;3.10;1.03;;;2.30;99.90;;;;;;5045922;28;20675;-58
2023/11/25 07:57:26;;;;;;;2.40;0.97;;;2.40;99.90;;;;;;5052234;28;20246;-58
2023/11/25 07:59:53;;;;;;;5.10;1.57;;;2.40;99.90;;;;;;5048842;28;20282;-58
2023/11/25 08:02:20;;;;;;;4.00;0.90;;;2.40;99.90;;;;;;5047894;28;20261;-58
2023/11/25 08:04:47;;;;;;;3.40;0.70;;;2.50;99.90;;;;;;5052658;28;20231;-58
2023/11/25 08:07:15;;;;;;;1.77;0.50;;;2.60;99.90;;;;;;5051518;28;20204;-58
2023/11/25 08:09:42;;;;;;;0.87;0.50;;;2.80;99.90;;;;;;5042252;28;20263;-58
2023/11/25 08:12:09;;;;;;;2.40;1.10;;;2.90;99.90;;;;;;5046679;28;20201;-58
2023/11/25 08:14:36;;;;;;;1.80;0.63;;;2.90;99.90;;;;;;5044838;28;20297;-58
2023/11/25 08:17:04;;;;;;;3.00;0.63;;;2.90;99.90;;;;;;5039853;28;20311;-58
2023/11/25 08:19:31;;;;;;;5.30;1.37;;;3.00;99.90;;;;;;5039459;28;20738;-58
2023/11/25 08:21:58;;;;;;;1.53;1.20;;;2.90;99.90;;;;;;5040741;28;20203;-58
2023/11/25 08:24:26;;;;;;;4.80;1.07;;;2.90;99.90;;;;;;5038580;28;20210;-58
2023/11/25 08:26:53;;;;;;;1.13;0.30;;;2.90;99.90;;;;;;5037567;28;20203;-58
2023/11/25 08:29:20;;;;;;;2.57;1.30;;;2.80;99.90;;;;;;5040402;28;20271;-58
2023/11/25 08:31:47;;;;;;;6.17;2.37;;;2.80;99.90;;;;;;5044012;28;20195;-58
2023/11/25 08:34:14;;;;;;;2.10;0.70;;;2.70;99.90;;;;;;5041786;28;20212;-58
2023/11/25 08:36:52;;;;;;;2.73;0.40;;;2.60;99.90;;;;;;5041133;28;20319;-58
2023/11/25 08:39:20;;;;;;;1.07;0.67;;;2.70;99.90;;;;;;5042374;28;20235;-58
2023/11/25 08:41:52;;;;;;;2.33;0.80;;;2.70;99.90;;;;;;5047571;28;20200;-58
2023/11/25 08:44:19;;;;;;;1.63;0.40;;;2.70;99.90;;;;;;5044644;28;20295;-58
2023/11/25 08:46:46;;;;;;;4.03;0.63;;;2.60;99.90;;;;;;5041490;28;20293;-58
2023/11/25 08:49:14;;;;;;;2.37;0.33;;;2.70;99.90;;;;;;5049292;28;20672;-58
2023/11/25 08:51:45;;;;;;;3.03;0.40;;;2.60;99.90;;;;;;5046820;28;20195;-58
2023/11/25 08:54:13;;;;;;;3.17;0.40;;;2.50;99.90;;;;;;5035289;28;20203;-58
2023/11/25 08:56:45;;;;;;;0.90;0.53;;;2.30;99.90;;;;;;5039073;28;20315;-58
2023/11/25 08:59:17;;;;;;;1.43;0.40;;;2.10;99.90;;;;;;5050469;28;20217;-58
2023/11/25 09:01:44;;;;;;;3.40;0.20;;;2.10;99.90;;;;;;5044584;28;20241;-58
2023/11/25 09:04:16;;;;;;;1.50;0.30;;;2.10;99.90;;;;;;5050397;28;20489;-59
2023/11/25 09:06:45;;;;;;;2.60;0.67;;;2.00;99.90;;;;;;5050487;28;20237;-58
2023/11/25 09:09:14;;;;;;;3.07;0.63;;;1.80;99.90;;;;;;5050893;28;20223;-59
2023/11/25 09:11:41;;;;;;;2.67;0.70;;;1.80;99.90;;;;;;5051164;28;20268;-58
2023/11/25 09:14:08;;;;;;;1.87;0.60;;;1.70;99.90;;;;;;5050786;28;20752;-59
2023/11/25 09:16:36;;;;;;;3.93;0.70;;;1.70;99.90;;;;;;5046750;28;20219;-59
2023/11/25 09:19:05;;;;;;;0.30;0.30;;;1.60;99.90;;;;;;5049396;28;20219;-59
2023/11/25 09:21:32;;;;;;;3.50;0.30;;;1.50;99.90;;;;;;5041395;28;20283;-59
2023/11/25 09:23:59;;;;;;;0.47;0.20;;;1.50;99.90;;;;;;5048909;28;20202;-59
2023/11/25 09:26:26;;;;;;;3.47;1.13;;;1.50;99.90;;;;;;5043582;28;20269;-58
2023/11/25 09:28:54;;;;;;;3.10;1.30;;;1.50;99.90;;;;;;5044875;28;20226;-58
2023/11/25 09:31:22;;;;;;;1.53;0.70;;;1.70;99.90;;;;;;5039549;28;20208;-59
2023/11/25 09:33:51;;;;;;;5.70;1.90;;;1.80;99.90;;;;;;5039820;28;20622;-59
2023/11/25 09:36:19;;;;;;;6.13;1.33;;;1.90;99.90;;;;;;5030976;28;20311;-59
2023/11/25 09:38:46;;;;;;;2.47;0.50;;;2.10;99.90;;;;;;5031311;28;20232;-59
2023/11/25 09:41:14;;;;;;;0.70;0.60;;;2.00;99.90;;;;;;5036361;28;20212;-59
2023/11/25 09:43:42;;;;;;;2.50;1.03;;;1.80;99.90;;;;;;5031249;28;20620;-58
2023/11/25 09:46:10;;;;;;;3.80;0.40;;;1.70;99.90;;;;;;5031196;28;20207;-59
2023/11/25 09:48:37;;;;;;;0.60;0.60;;;1.70;99.90;;;;;;5031086;28;20372;-59
2023/11/25 09:51:09;;;;;;;4.63;1.77;;;1.60;99.90;;;;;;5031242;28;20249;-59
2023/11/25 09:53:38;;;;;;;2.93;0.70;;;1.60;99.90;;;;;;5030904;28;20238;-59
2023/11/25 09:56:07;;;;;;;3.07;0.70;;;1.70;99.90;;;;;;5033112;28;20748;-58
2023/11/25 09:58:36;;;;;;;2.20;1.00;;;1.70;99.90;;;;;;5051100;28;20318;-59
2023/11/25 10:01:05;;;;;;;2.40;0.60;;;1.90;99.90;;;;;;5051254;28;20237;-58
2023/11/25 10:03:34;;;;;;;2.43;0.43;;;2.10;99.90;;;;;;5050130;28;20208;-59
2023/11/25 10:06:02;;;;;;;4.80;1.43;;;2.30;99.90;;;;;;5045475;28;20237;-68
2023/11/25 10:08:30;;;;;;;4.03;1.20;;;2.50;99.90;;;;;;5042076;28;20611;-58
2023/11/25 10:11:05;;;;;;;5.73;1.47;;;2.40;99.90;;;;;;5044195;28;20204;-57
2023/11/25 10:13:34;;;;;;;3.43;1.63;;;2.40;99.90;;;;;;5040776;28;20206;-57
2023/11/25 10:16:02;;;;;;;1.23;1.13;;;2.60;99.90;;;;;;5046298;28;20302;-62
2023/11/25 10:18:29;;;;;;;2.83;1.57;;;2.60;99.90;;;;;;5047667;28;20224;-64
2023/11/25 10:20:58;;;;;;;4.80;1.50;;;2.50;99.90;;;;;;5042360;28;20237;-65
2023/11/25 10:23:26;;;;;;;5.13;2.20;;;2.50;99.90;;;;;;5042786;28;20264;-66
2023/11/25 10:25:55;;;;;;;6.37;2.30;;;2.50;99.90;;;;;;5041153;28;20283;-66
2023/11/25 10:28:25;;;;;;;5.40;2.20;;;2.50;99.90;;;;;;5048065;28;20211;-67
2023/11/25 10:30:56;;;;;;;4.20;2.93;;;2.50;99.90;;;;;;5041682;28;20211;-66
2023/11/25 10:33:24;;;;;;;5.13;2.30;;;2.50;99.90;;;;;;5050234;28;20234;-66
2023/11/25 10:35:51;;;;;;;5.70;2.40;;;2.60;99.90;;;;;;5042068;28;20280;-63
2023/11/25 10:38:21;;;;;;;3.97;2.10;;;2.60;99.90;;;;;;5042772;28;20224;-64
2023/11/25 10:40:49;;;;;;;5.73;1.87;;;2.80;99.90;;;;;;5042036;28;20262;-64
2023/11/25 10:43:19;;;;;;;6.37;2.50;;;2.80;99.90;;;;;;5045758;28;20228;-65
2023/11/25 10:45:46;;;;;;;3.57;1.83;;;2.80;99.90;;;;;;5047606;28;20642;-64
2023/11/25 10:48:13;;;;;;;3.67;1.40;;;2.80;99.90;;;;;;5045918;28;20738;-65
2023/11/25 10:50:43;;;;;;;3.37;1.67;;;2.80;99.90;;;;;;5052549;28;20200;-65
2023/11/25 10:53:14;;;;;;;3.57;1.60;;;2.60;99.90;;;;;;5045584;28;20232;-65
2023/11/25 10:55:43;;;;;;;4.70;1.20;;;2.60;99.90;;;;;;5037475;28;20204;-66
2023/11/25 10:58:11;;;;;;;2.10;1.20;;;2.60;99.90;;;;;;5042189;28;20311;-66
2023/11/25 11:00:39;;;;;;;3.40;1.33;;;2.60;99.90;;;;;;5046352;28;20208;-65
2023/11/25 11:03:09;;;;;;;5.67;1.30;;;2.60;99.90;;;;;;5044883;28;20266;-65
2023/11/25 11:05:44;;;;;;;1.70;0.80;;;2.70;99.90;;;;;;5048455;28;20200;-64
2023/11/25 11:08:18;;;;;;;1.43;1.00;;;2.80;99.90;;;;;;5047669;28;20257;-64
2023/11/25 11:10:54;;;;;;;3.23;1.30;;;2.90;99.90;;;;;;5043987;28;20290;-64
2023/11/25 11:13:26;;;;;;;3.83;1.40;;;3.00;99.90;;;;;;5041603;28;20200;-65
2023/11/25 11:16:00;;;;;;;3.37;0.97;;;3.20;99.90;;;;;;5045522;28;20231;-65
2023/11/25 11:18:35;;;;;;;2.43;1.40;;;3.40;99.90;;;;;;5042109;28;20301;-65
2023/11/25 11:21:03;;;;;;;6.17;1.60;;;3.50;99.90;;;;;;5044599;28;20204;-65
2023/11/25 11:23:32;;;;;;;6.37;1.80;;;3.50;99.90;;;;;;5047716;28;20200;-67
2023/11/25 11:26:08;;;;;;;4.23;1.50;;;3.40;99.90;;;;;;5045116;28;20208;-58
2023/11/25 11:28:44;;;;;;;2.83;1.03;;;3.40;99.90;;;;;;5051724;28;20285;-58
2023/11/25 11:31:47;;;;;;;1.70;0.80;;;3.40;99.90;;;;;;5046141;28;20254;-57
2023/11/25 11:34:15;;;;;;;1.63;0.93;;;3.50;99.90;;;;;;5036918;28;20229;-58
2023/11/25 11:36:42;;;;;;;1.87;1.30;;;3.60;99.90;;;;;;5050278;28;20291;-58
2023/11/25 11:39:11;;;;;;;3.10;0.97;;;3.60;99.90;;;;;;5044541;28;20219;-58
2023/11/25 11:41:39;;;;;;;4.67;0.40;;;3.50;99.90;;;;;;5043189;28;20209;-58
2023/11/25 11:44:06;;;;;;;2.23;0.40;;;3.40;99.90;;;;;;5045639;28;20695;-58
2023/11/25 11:46:39;;;;;;;0.90;0.20;;;3.30;99.90;;;;;;5046620;28;20204;-58
2023/11/25 11:49:08;;;;;;;2.77;0.57;;;3.20;99.90;;;;;;5047236;28;20223;-59
2023/11/25 11:51:35;;;;;;;0.80;0.40;;;3.20;99.90;;;;;;5041413;28;20284;-63
2023/11/25 11:54:26;;;;;;;2.27;0.30;;;3.20;99.90;;;;;;5047234;28;20257;-64
2023/11/25 11:57:03;;;;;;;3.53;0.67;;;3.00;99.90;;;;;;5046979;28;20204;-65
2023/11/25 12:00:11;;;;;;;0.53;0.47;;;2.90;99.90;;;;;;5042346;28;20242;-65
2023/11/25 12:02:42;;;;;;;0.63;0.50;;;2.90;99.90;;;;;;5040315;28;20548;-66
2023/11/25 12:05:10;;;;;;;3.07;0.60;;;2.90;99.90;;;;;;5046353;28;20203;-66
2023/11/25 12:07:37;;;;;;;0.37;0.37;;;2.90;99.90;;;;;;5039557;28;20260;-64
2023/11/25 12:10:06;;;;;;;2.83;0.40;;;3.00;99.90;;;;;;5046591;28;20863;-55
2023/11/25 12:12:40;;;;;;;4.13;0.63;;;3.10;99.90;;;;;;5046113;28;20239;-58
2023/11/25 12:15:09;;;;;;;2.57;1.30;;;3.20;99.90;;;;;;5051980;28;20668;-58
2023/11/25 12:17:38;;;;;;;6.57;1.53;;;3.20;99.90;;;;;;5043216;28;20223;-60
2023/11/25 12:20:08;;;;;;;4.87;1.47;;;3.30;99.90;;;;;;5047053;28;20767;-59
2023/11/25 12:22:35;;;;;;;4.03;1.30;;;3.30;99.90;;;;;;5049189;28;20212;-58
2023/11/25 12:25:03;;;;;;;2.63;0.83;;;3.20;99.90;;;;;;5046459;28;20209;-59
2023/11/25 12:27:32;;;;;;;0.97;0.40;;;3.10;99.90;;;;;;5049066;28;20624;-59
2023/11/25 12:29:59;;;;;;;0.43;0.20;;;2.90;99.90;;;;;;5052292;28;20226;-58
2023/11/25 12:32:26;;;;;;;3.30;0.60;;;2.90;99.90;;;;;;5051300;28;20216;-59
2023/11/25 12:34:56;;;;;;;4.10;0.90;;;3.00;99.90;;;;;;5042108;28;20211;-58
2023/11/25 12:37:24;;;;;;;2.57;1.13;;;3.00;99.90;;;;;;5052566;28;20216;-58
2023/11/25 12:39:52;;;;;;;2.83;0.77;;;3.10;99.90;;;;;;5051916;28;20224;-59
2023/11/25 12:42:23;;;;;;;5.70;0.70;;;3.10;99.90;;;;;;5046677;28;20199;-59
2023/11/25 12:44:51;;;;;;;1.73;0.70;;;3.20;99.90;;;;;;5042261;28;20226;-58
2023/11/25 12:47:18;;;;;;;3.03;0.60;;;3.30;99.90;;;;;;5042800;28;20258;-59
2023/11/25 12:49:45;;;;;;;1.63;0.93;;;3.40;99.90;;;;;;5046832;28;20240;-58
2023/11/25 12:52:22;;;;;;;4.07;1.00;;;3.50;99.90;;;;;;5043620;28;20205;-59
2023/11/25 12:54:52;;;;;;;0.70;0.50;;;3.50;99.90;;;;;;5042152;28;20203;-58
2023/11/25 12:57:24;;;;;;;5.10;0.90;;;3.50;99.90;;;;;;5050195;28;20265;-58
2023/11/25 12:59:51;;;;;;;2.80;0.90;;;3.40;99.90;;;;;;5051271;28;20220;-58
2023/11/25 13:02:18;;;;;;;2.77;0.97;;;3.50;99.90;;;;;;5047605;28;20279;-58
2023/11/25 13:04:47;;;;;;;1.83;0.60;;;3.50;99.90;;;;;;5047850;28;20201;-58